createdAt,value
2023-02-14T00:02:14.940Z,96841.66
2023-02-14T00:04:41.503Z,96847.38
2023-02-14T00:07:08.076Z,96837.34
2023-02-14T00:09:34.526Z,96836.88
2023-02-14T00:12:01.045Z,96837.59
2023-02-14T00:14:27.508Z,96833.91
2023-02-14T00:16:54.243Z,96839.22
2023-02-14T00:19:22.619Z,96831.09
2023-02-14T00:21:51.325Z,96835.88
2023-02-14T00:24:23.325Z,96825.25
2023-02-14T00:26:50.638Z,96824.66
2023-02-14T00:29:20.556Z,96829.91
2023-02-14T00:31:47.415Z,96832.69
2023-02-14T00:34:15.658Z,96835.34
2023-02-14T00:36:43.028Z,96832.47
2023-02-14T00:39:12.128Z,96831.91
2023-02-14T00:41:39.576Z,96828.88
2023-02-14T00:44:06.725Z,96822.56
2023-02-14T00:46:34.134Z,96822.94
2023-02-14T00:49:00.735Z,96820.44
2023-02-14T00:51:27.758Z,96816.03
2023-02-14T00:53:54.736Z,96817.28
2023-02-14T00:56:21.661Z,96808.03
2023-02-14T00:58:48.838Z,96809.13
2023-02-14T01:01:16.912Z,96812.44
2023-02-14T01:03:43.510Z,96813.56
2023-02-14T01:06:10.058Z,96814.00
2023-02-14T01:08:36.524Z,96819.22
2023-02-14T01:11:11.848Z,96821.19
2023-02-14T01:13:39.089Z,96825.56
2023-02-14T01:16:08.670Z,96823.06
2023-02-14T01:18:36.030Z,96814.25
2023-02-14T01:21:16.239Z,96817.69
2023-02-14T01:23:43.568Z,96823.53
2023-02-14T01:26:10.818Z,96817.88
2023-02-14T01:28:37.787Z,96825.19
2023-02-14T01:31:27.454Z,96828.19
2023-02-14T01:33:54.804Z,96820.34
2023-02-14T01:36:51.724Z,96818.81
2023-02-14T01:39:19.132Z,96815.38
2023-02-14T01:41:47.464Z,96805.88
2023-02-14T01:44:14.416Z,96813.72
2023-02-14T01:46:43.988Z,96808.22
2023-02-14T01:49:16.951Z,96806.13
2023-02-14T01:51:57.324Z,96804.59
2023-02-14T01:54:26.413Z,96809.69
2023-02-14T01:56:57.451Z,96799.88
2023-02-14T01:59:25.823Z,96804.28
2023-02-14T02:01:52.937Z,96806.63
2023-02-14T02:04:23.858Z,96804.91
2023-02-14T02:06:56.304Z,96806.41
2023-02-14T02:09:31.275Z,96807.06
2023-02-14T02:11:57.829Z,96807.38
2023-02-14T02:14:24.481Z,96809.47
2023-02-14T02:17:09.794Z,96804.09
2023-02-14T02:19:58.015Z,96800.50
2023-02-14T02:22:57.235Z,96792.53
2023-02-14T02:26:00.998Z,96791.00
2023-02-14T02:29:08.794Z,96785.63
2023-02-14T02:32:27.329Z,96783.44
2023-02-14T02:35:17.965Z,96789.63
2023-02-14T02:38:03.145Z,96792.25
2023-02-14T02:40:36.111Z,96786.47
2023-02-14T02:43:24.295Z,96790.47
2023-02-14T02:46:16.606Z,96783.72
2023-02-14T02:48:57.261Z,96779.16
2023-02-14T02:51:37.155Z,96792.63
2023-02-14T02:54:10.067Z,96791.53
2023-02-14T02:56:41.848Z,96785.78
2023-02-14T02:59:42.078Z,96776.28
2023-02-14T03:02:23.849Z,96784.25
2023-02-14T03:04:59.136Z,96776.56
2023-02-14T03:07:28.618Z,96777.66
2023-02-14T03:09:58.193Z,96778.91
2023-02-14T03:12:33.751Z,96773.94
2023-02-14T03:15:35.551Z,96771.56
2023-02-14T03:18:07.110Z,96768.50
2023-02-14T03:20:55.048Z,96776.25
2023-02-14T03:23:29.982Z,96774.91
2023-02-14T03:26:14.326Z,96769.00
2023-02-14T03:29:02.846Z,96775.84
2023-02-14T03:31:45.008Z,96768.81
2023-02-14T03:34:16.233Z,96777.38
2023-02-14T03:36:47.570Z,96767.56
2023-02-14T03:39:33.720Z,96775.28
2023-02-14T03:42:06.384Z,96765.31
2023-02-14T03:44:34.911Z,96772.91
2023-02-14T03:47:05.888Z,96766.19
2023-02-14T03:49:37.080Z,96762.78
2023-02-14T03:52:04.560Z,96769.53
2023-02-14T03:54:31.795Z,96771.84
2023-02-14T03:57:12.166Z,96775.16
2023-02-14T03:59:38.809Z,96776.41
2023-02-14T04:02:23.778Z,96773.00
2023-02-14T04:04:51.755Z,96777.50
2023-02-14T04:07:23.012Z,96772.53
2023-02-14T04:09:49.771Z,96773.69
2023-02-14T04:12:21.721Z,96777.66
2023-02-14T04:15:11.258Z,96782.47
2023-02-14T04:17:37.821Z,96783.97
2023-02-14T04:20:05.234Z,96772.13
2023-02-14T04:22:32.258Z,96771.84
2023-02-14T04:24:59.052Z,96764.72
2023-02-14T04:27:25.596Z,96763.06
2023-02-14T04:29:52.316Z,96769.13
2023-02-14T04:32:20.809Z,96764.44
2023-02-14T04:34:47.571Z,96764.16
2023-02-14T04:37:16.854Z,96758.38
2023-02-14T04:39:46.290Z,96767.56
2023-02-14T04:42:13.302Z,96759.72
2023-02-14T04:44:39.871Z,96751.19
2023-02-14T04:47:07.613Z,96757.81
2023-02-14T04:49:34.412Z,96758.09
2023-02-14T04:52:01.808Z,96758.09
2023-02-14T04:54:28.516Z,96754.66
2023-02-14T04:56:55.089Z,96754.94
2023-02-14T04:59:23.354Z,96749.28
2023-02-14T05:01:51.780Z,96750.41
2023-02-14T05:04:18.568Z,96761.69
2023-02-14T05:06:45.049Z,96754.63
2023-02-14T05:09:11.597Z,96757.25
2023-02-14T05:11:40.234Z,96762.88
2023-02-14T05:14:09.663Z,96759.56
2023-02-14T05:16:36.254Z,96764.53
2023-02-14T05:19:02.755Z,96757.75
2023-02-14T05:21:29.264Z,96769.16
2023-02-14T05:23:55.734Z,96766.78
2023-02-14T05:26:23.185Z,96767.06
2023-02-14T05:28:49.800Z,96770.38
2023-02-14T05:31:16.482Z,96769.69
2023-02-14T05:33:43.622Z,96767.50
2023-02-14T05:36:10.718Z,96771.91
2023-02-14T05:38:37.207Z,96769.72
2023-02-14T05:41:04.109Z,96774.59
2023-02-14T05:43:30.597Z,96766.47
2023-02-14T05:45:57.851Z,96763.72
2023-02-14T05:48:24.726Z,96770.50
2023-02-14T05:50:51.623Z,96770.78
2023-02-14T05:53:18.145Z,96760.31
2023-02-14T05:55:44.607Z,96770.06
2023-02-14T05:58:11.178Z,96770.91
2023-02-14T06:00:40.709Z,96760.28
2023-02-14T06:03:07.754Z,96762.91
2023-02-14T06:05:34.644Z,96764.41
2023-02-14T06:08:03.061Z,96761.94
2023-02-14T06:10:29.813Z,96761.09
2023-02-14T06:12:56.837Z,96765.66
2023-02-14T06:15:23.605Z,96762.63
2023-02-14T06:17:54.784Z,96771.44
2023-02-14T06:20:22.240Z,96763.06
2023-02-14T06:22:48.714Z,96765.97
2023-02-14T06:25:15.974Z,96766.91
2023-02-14T06:27:42.810Z,96771.75
2023-02-14T06:30:10.526Z,96764.16
2023-02-14T06:32:37.527Z,96769.25
2023-02-14T06:35:04.933Z,96769.66
2023-02-14T06:37:31.548Z,96768.13
2023-02-14T06:39:58.252Z,96780.34
2023-02-14T06:42:25.076Z,96774.16
2023-02-14T06:44:53.520Z,96768.75
2023-02-14T06:47:20.332Z,96769.59
2023-02-14T06:49:46.859Z,96763.94
2023-02-14T06:52:13.361Z,96763.34
2023-02-14T06:54:39.935Z,96769.53
2023-02-14T06:57:06.401Z,96762.66
2023-02-14T06:59:32.946Z,96761.56
2023-02-14T07:01:59.785Z,96758.84
2023-02-14T07:04:26.412Z,96764.34
2023-02-14T07:06:53.292Z,96765.69
2023-02-14T07:09:20.214Z,96761.56
2023-02-14T07:11:46.784Z,96762.91
2023-02-14T07:14:13.753Z,96754.69
2023-02-14T07:16:40.568Z,96767.69
2023-02-14T07:19:07.090Z,96768.41
2023-02-14T07:21:33.608Z,96772.38
2023-02-14T07:24:00.151Z,96775.28
2023-02-14T07:26:26.869Z,96761.28
2023-02-14T07:28:53.428Z,96764.44
2023-02-14T07:31:20.032Z,96769.38
2023-02-14T07:33:47.028Z,96763.19
2023-02-14T07:36:13.511Z,96766.91
2023-02-14T07:38:40.371Z,96764.69
2023-02-14T07:41:06.848Z,96766.91
2023-02-14T07:43:33.355Z,96759.16
2023-02-14T07:46:01.314Z,96765.81
2023-02-14T07:48:30.665Z,96759.97
2023-02-14T07:50:58.715Z,96768.78
2023-02-14T07:53:25.575Z,96764.53
2023-02-14T07:55:52.580Z,96769.25
2023-02-14T07:58:19.433Z,96770.25
2023-02-14T08:00:46.256Z,96772.53
2023-02-14T08:03:13.805Z,96769.34
2023-02-14T08:05:41.070Z,96766.09
2023-02-14T08:08:08.038Z,96768.44
2023-02-14T08:10:34.768Z,96768.94
2023-02-14T08:13:01.685Z,96757.69
2023-02-14T08:15:30.769Z,96755.22
2023-02-14T08:17:57.265Z,96758.56
2023-02-14T08:20:23.724Z,96756.59
2023-02-14T08:22:50.200Z,96761.38
2023-02-14T08:25:16.685Z,96756.78
2023-02-14T08:27:43.165Z,96761.03
2023-02-14T08:30:10.023Z,96756.09
2023-02-14T08:32:36.620Z,96758.53
2023-02-14T08:35:03.455Z,96749.22
2023-02-14T08:37:30.501Z,96756.19
2023-02-14T08:39:57.043Z,96755.16
2023-02-14T08:42:23.637Z,96754.56
2023-02-14T08:44:50.221Z,96753.44
2023-02-14T08:47:16.830Z,96754.25
2023-02-14T08:49:43.912Z,96750.50
2023-02-14T08:52:10.646Z,96755.50
2023-02-14T08:54:37.153Z,96754.75
2023-02-14T08:57:04.061Z,96749.44
2023-02-14T08:59:30.721Z,96750.97
2023-02-14T09:01:57.372Z,96754.50
2023-02-14T09:04:23.896Z,96742.31
2023-02-14T09:06:50.465Z,96745.44
2023-02-14T09:09:19.917Z,96744.25
2023-02-14T09:11:46.746Z,96745.94
2023-02-14T09:14:13.395Z,96738.72
2023-02-14T09:16:39.992Z,96754.25
2023-02-14T09:19:06.622Z,96738.97
2023-02-14T09:21:33.105Z,96750.81
2023-02-14T09:23:59.781Z,96746.03
2023-02-14T09:26:26.297Z,96754.44
2023-02-14T09:28:52.834Z,96750.69
2023-02-14T09:31:22.184Z,96749.88
2023-02-14T09:33:49.739Z,96753.97
2023-02-14T09:36:16.478Z,96743.06
2023-02-14T09:38:42.985Z,96758.06
2023-02-14T09:41:12.767Z,96747.06
2023-02-14T09:43:46.827Z,96747.06
2023-02-14T09:46:14.982Z,96748.09
2023-02-14T09:48:45.233Z,96753.03
2023-02-14T09:51:15.068Z,96752.25
2023-02-14T09:53:47.363Z,96760.31
2023-02-14T09:56:52.296Z,96757.16
2023-02-14T09:59:36.206Z,96759.47
2023-02-14T10:02:38.776Z,96754.88
2023-02-14T10:05:20.352Z,96748.28
2023-02-14T10:07:57.416Z,96752.53
2023-02-14T10:10:48.064Z,96744.16
2023-02-14T10:13:39.108Z,96739.06
2023-02-14T10:16:31.692Z,96735.59
2023-02-14T10:19:04.940Z,96736.09
2023-02-14T10:21:36.384Z,96738.72
2023-02-14T10:24:19.224Z,96741.84
2023-02-14T10:26:48.695Z,96739.38
2023-02-14T10:29:17.499Z,96740.69
2023-02-14T10:32:02.944Z,96741.66
2023-02-14T10:34:37.633Z,96733.41
2023-02-14T10:37:12.122Z,96733.75
2023-02-14T10:40:13.339Z,96725.63
2023-02-14T10:43:01.329Z,96725.75
2023-02-14T10:45:39.417Z,96726.13
2023-02-14T10:48:25.327Z,96728.16
2023-02-14T10:51:12.640Z,96729.75
2023-02-14T10:53:57.398Z,96725.75
2023-02-14T10:56:31.649Z,96714.56
2023-02-14T10:58:59.666Z,96708.97
2023-02-14T11:01:26.724Z,96703.69
2023-02-14T11:03:59.000Z,96700.44
2023-02-14T11:06:25.554Z,96701.56
2023-02-14T11:08:52.073Z,96681.31
2023-02-14T11:11:37.710Z,96682.72
2023-02-14T11:14:25.601Z,96678.88
2023-02-14T11:16:53.715Z,96663.97
2023-02-14T11:19:24.257Z,96669.31
2023-02-14T11:21:51.484Z,96654.38
2023-02-14T11:24:34.663Z,96655.00
2023-02-14T11:27:14.982Z,96658.41
2023-02-14T11:29:41.516Z,96659.13
2023-02-14T11:32:20.241Z,96655.47
2023-02-14T11:34:54.544Z,96655.25
2023-02-14T11:37:24.101Z,96652.22
2023-02-14T11:39:51.368Z,96644.31
2023-02-14T11:42:42.705Z,96648.84
2023-02-14T11:45:34.632Z,96643.06
2023-02-14T11:48:27.844Z,96647.09
2023-02-14T11:51:10.001Z,96639.34
2023-02-14T11:53:48.394Z,96638.44
2023-02-14T11:56:16.137Z,96639.31
2023-02-14T11:58:53.574Z,96622.13
2023-02-14T12:01:29.264Z,96620.53
2023-02-14T12:03:58.886Z,96621.53
2023-02-14T12:06:33.292Z,96616.63
2023-02-14T12:09:24.062Z,96621.91
2023-02-14T12:12:05.852Z,96616.88
2023-02-14T12:14:35.043Z,96617.63
2023-02-14T12:17:13.890Z,96600.50
2023-02-14T12:19:55.793Z,96612.97
2023-02-14T12:22:28.357Z,96597.97
2023-02-14T12:25:20.893Z,96593.94
2023-02-14T12:28:09.245Z,96588.75
2023-02-14T12:30:36.034Z,96578.25
2023-02-14T12:33:02.741Z,96564.97
2023-02-14T12:35:50.548Z,96572.88
2023-02-14T12:38:35.605Z,96571.78
2023-02-14T12:41:40.388Z,96557.88
2023-02-14T12:44:28.142Z,96564.44
2023-02-14T12:46:57.285Z,96558.13
2023-02-14T12:49:43.024Z,96559.41
2023-02-14T12:52:21.223Z,96553.94
2023-02-14T12:55:15.253Z,96551.38
2023-02-14T12:57:52.443Z,96536.34
2023-02-14T13:00:48.105Z,96544.44
2023-02-14T13:03:42.099Z,96535.97
2023-02-14T13:06:27.541Z,96530.78
2023-02-14T13:09:44.905Z,96531.50
2023-02-14T13:12:24.395Z,96512.00
2023-02-14T13:15:05.892Z,96508.88
2023-02-14T13:17:47.215Z,96504.66
2023-02-14T13:20:35.416Z,96504.31
2023-02-14T13:23:10.969Z,96497.66
2023-02-14T13:25:41.266Z,96502.22
2023-02-14T13:28:09.698Z,96500.69
2023-02-14T13:30:37.328Z,96503.44
2023-02-14T13:33:37.562Z,96497.00
2023-02-14T13:36:07.865Z,96503.03
2023-02-14T13:38:35.416Z,96502.63
2023-02-14T13:41:02.933Z,96505.03
2023-02-14T13:43:47.190Z,96493.34
2023-02-14T13:46:17.666Z,96497.50
2023-02-14T13:49:13.779Z,96492.84
2023-02-14T13:51:51.568Z,96497.50
2023-02-14T13:54:34.898Z,96489.38
2023-02-14T13:57:25.693Z,96495.75
2023-02-14T14:00:16.983Z,96494.69
2023-02-14T14:02:50.594Z,96492.56
2023-02-14T14:05:30.969Z,96494.34
2023-02-14T14:08:22.345Z,96480.19
2023-02-14T14:10:49.866Z,96477.59
2023-02-14T14:13:41.332Z,96477.59
2023-02-14T14:16:28.479Z,96458.13
2023-02-14T14:19:01.178Z,96462.81
2023-02-14T14:21:32.549Z,96461.53
2023-02-14T14:24:14.304Z,96453.38
2023-02-14T14:26:59.511Z,96450.53
2023-02-14T14:29:35.652Z,96453.66
2023-02-14T14:32:32.937Z,96456.47
2023-02-14T14:35:05.802Z,96449.63
2023-02-14T14:37:37.692Z,96458.06
2023-02-14T14:40:06.588Z,96450.34
2023-02-14T14:42:37.807Z,96447.44
2023-02-14T14:45:08.509Z,96450.06
2023-02-14T14:47:40.805Z,96454.13
2023-02-14T14:50:13.588Z,96447.47
2023-02-14T14:52:43.576Z,96455.72
2023-02-14T14:55:17.836Z,96446.72
2023-02-14T14:57:49.619Z,96448.34
2023-02-14T15:00:18.503Z,96448.31
2023-02-14T15:02:56.364Z,96442.78
2023-02-14T15:05:44.012Z,96446.91
2023-02-14T15:08:21.365Z,96443.31
2023-02-14T15:10:55.065Z,96441.78
2023-02-14T15:13:31.627Z,96439.63
2023-02-14T15:15:58.796Z,96436.50
2023-02-14T15:18:25.491Z,96427.59
2023-02-14T15:20:53.237Z,96431.44
2023-02-14T15:23:23.082Z,96429.81
2023-02-14T15:25:50.159Z,96430.28
2023-02-14T15:28:31.374Z,96425.00
2023-02-14T15:31:07.094Z,96428.22
2023-02-14T15:33:34.298Z,96424.53
2023-02-14T15:36:04.729Z,96420.84
2023-02-14T15:38:32.008Z,96419.47
2023-02-14T15:40:59.439Z,96416.28
2023-02-14T15:43:33.812Z,96421.38
2023-02-14T15:46:30.190Z,96423.63
2023-02-14T15:48:58.583Z,96419.63
2023-02-14T15:51:28.071Z,96416.38
2023-02-14T15:54:00.802Z,96420.50
2023-02-14T15:56:29.192Z,96426.75
2023-02-14T15:59:03.413Z,96423.63
2023-02-14T16:01:31.624Z,96417.91
2023-02-14T16:04:00.404Z,96415.22
2023-02-14T16:06:38.764Z,96422.81
2023-02-14T16:09:08.045Z,96414.22
2023-02-14T16:11:36.940Z,96413.91
2023-02-14T16:14:27.368Z,96425.13
2023-02-14T16:17:05.535Z,96417.91
2023-02-14T16:19:36.931Z,96411.84
2023-02-14T16:22:03.734Z,96411.47
2023-02-14T16:24:30.218Z,96409.00
2023-02-14T16:26:56.689Z,96410.19
2023-02-14T16:29:23.198Z,96410.13
2023-02-14T16:34:41.998Z,96403.31
2023-02-14T16:37:21.190Z,96409.41
2023-02-14T16:39:48.047Z,96413.84
2023-02-14T16:42:16.242Z,96408.69
2023-02-14T16:44:43.131Z,96408.03
2023-02-14T16:47:13.891Z,96403.50
2023-02-14T16:49:41.129Z,96405.44
2023-02-14T16:52:39.314Z,96414.31
2023-02-14T16:55:06.590Z,96413.13
2023-02-14T16:57:37.250Z,96403.00
2023-02-14T17:00:05.009Z,96413.22
2023-02-14T17:02:31.998Z,96407.59
2023-02-14T17:04:58.493Z,96412.34
2023-02-14T17:07:25.467Z,96402.50
2023-02-14T17:09:55.893Z,96402.91
2023-02-14T17:12:25.833Z,96401.53
2023-02-14T17:14:54.368Z,96404.81
2023-02-14T17:17:21.293Z,96398.69
2023-02-14T17:19:47.942Z,96393.41
2023-02-14T17:22:14.660Z,96397.81
2023-02-14T17:24:41.361Z,96394.81
2023-02-14T17:27:08.210Z,96393.53
2023-02-14T17:29:34.734Z,96403.34
2023-02-14T17:32:01.416Z,96404.06
2023-02-14T17:34:33.753Z,96406.38
2023-02-14T17:37:00.347Z,96400.25
2023-02-14T17:39:26.874Z,96406.25
2023-02-14T17:41:53.439Z,96410.91
2023-02-14T17:44:22.474Z,96409.13
2023-02-14T17:46:49.030Z,96419.41
2023-02-14T17:49:15.643Z,96410.53
2023-02-14T17:51:42.104Z,96412.22
2023-02-14T17:54:09.591Z,96415.00
2023-02-14T17:56:36.133Z,96411.78
2023-02-14T17:59:02.921Z,96418.91
2023-02-14T18:01:30.253Z,96427.22
2023-02-14T18:03:57.297Z,96419.16
2023-02-14T18:06:23.907Z,96414.22
2023-02-14T18:08:51.069Z,96418.28
2023-02-14T18:11:20.277Z,96423.66
2023-02-14T18:13:47.037Z,96418.09
2023-02-14T18:16:16.336Z,96412.94
2023-02-14T18:18:43.027Z,96416.22
2023-02-14T18:21:11.590Z,96414.22
2023-02-14T18:23:38.333Z,96415.63
2023-02-14T18:26:07.217Z,96417.28
2023-02-14T18:28:34.875Z,96414.16
2023-02-14T18:31:06.183Z,96414.00
2023-02-14T18:33:33.541Z,96411.53
2023-02-14T18:36:05.428Z,96408.00
2023-02-14T18:38:33.677Z,96399.09
2023-02-14T18:41:07.548Z,96405.69
2023-02-14T18:43:34.971Z,96406.66
2023-02-14T18:46:15.990Z,96400.56
2023-02-14T18:48:42.663Z,96399.16
2023-02-14T18:51:23.918Z,96397.38
2023-02-14T18:53:51.153Z,96393.13
2023-02-14T18:56:20.570Z,96396.09
2023-02-14T18:58:49.128Z,96393.50
2023-02-14T19:01:17.963Z,96387.47
2023-02-14T19:03:45.025Z,96390.63
2023-02-14T19:06:12.432Z,96394.28
2023-02-14T19:08:40.426Z,96391.00
2023-02-14T19:11:26.612Z,96388.53
2023-02-14T19:13:55.282Z,96391.31
2023-02-14T19:16:27.763Z,96390.16
2023-02-14T19:18:55.069Z,96388.34
2023-02-14T19:21:24.178Z,96381.31
2023-02-14T19:23:53.535Z,96387.38
2023-02-14T19:26:23.318Z,96389.69
2023-02-14T19:28:53.688Z,96388.41
2023-02-14T19:31:20.244Z,96396.91
2023-02-14T19:33:47.067Z,96396.44
2023-02-14T19:36:16.476Z,96391.66
2023-02-14T19:38:45.392Z,96392.66
2023-02-14T19:41:24.038Z,96392.28
2023-02-14T19:43:51.465Z,96393.63
2023-02-14T19:46:20.183Z,96403.84
2023-02-14T19:48:47.386Z,96393.09
2023-02-14T19:51:25.570Z,96387.53
2023-02-14T19:53:53.911Z,96391.72
2023-02-14T19:56:21.773Z,96387.72
2023-02-14T19:58:52.295Z,96389.25
2023-02-14T20:01:28.679Z,96395.34
2023-02-14T20:03:55.233Z,96397.97
2023-02-14T20:06:22.733Z,96386.13
2023-02-14T20:08:49.690Z,96387.47
2023-02-14T20:11:36.445Z,96388.41
2023-02-14T20:14:03.864Z,96392.84
2023-02-14T20:16:32.444Z,96387.25
2023-02-14T20:19:05.030Z,96387.25
2023-02-14T20:21:31.812Z,96393.81
2023-02-14T20:23:59.551Z,96389.03
2023-02-14T20:26:26.450Z,96381.63
2023-02-14T20:28:52.920Z,96377.53
2023-02-14T20:31:19.759Z,96377.53
2023-02-14T20:33:47.320Z,96386.78
2023-02-14T20:36:14.150Z,96377.09
2023-02-14T20:38:40.652Z,96384.69
2023-02-14T20:41:12.652Z,96375.00
2023-02-14T20:43:39.688Z,96382.19
2023-02-14T20:46:08.675Z,96380.91
2023-02-14T20:48:35.435Z,96387.78
2023-02-14T20:51:13.255Z,96381.56
2023-02-14T20:53:40.382Z,96383.53
2023-02-14T20:56:07.227Z,96390.69
2023-02-14T20:58:35.198Z,96388.41
2023-02-14T21:01:15.507Z,96383.16
2023-02-14T21:03:43.668Z,96380.41
2023-02-14T21:06:10.710Z,96390.91
2023-02-14T21:08:38.056Z,96381.53
2023-02-14T21:11:06.227Z,96379.56
2023-02-14T21:13:33.261Z,96382.53
2023-02-14T21:16:17.027Z,96382.16
2023-02-14T21:18:45.187Z,96388.06
2023-02-14T21:21:18.444Z,96393.13
2023-02-14T21:23:45.261Z,96386.25
2023-02-14T21:26:11.778Z,96388.72
2023-02-14T21:28:38.268Z,96382.47
2023-02-14T21:31:06.887Z,96380.03
2023-02-14T21:33:33.990Z,96374.13
2023-02-14T21:36:06.904Z,96377.94
2023-02-14T21:38:33.756Z,96372.50
2023-02-14T21:41:10.110Z,96375.66
2023-02-14T21:43:39.087Z,96369.06
2023-02-14T21:46:07.053Z,96381.69
2023-02-14T21:48:33.823Z,96375.28
2023-02-14T21:51:00.572Z,96371.66
2023-02-14T21:53:27.323Z,96363.47
2023-02-14T21:55:53.807Z,96369.38
2023-02-14T21:58:20.298Z,96375.09
2023-02-14T22:00:46.963Z,96368.03
2023-02-14T22:03:13.586Z,96370.31
2023-02-14T22:05:40.094Z,96377.16
2023-02-14T22:08:06.532Z,96377.03
2023-02-14T22:10:33.632Z,96372.44
2023-02-14T22:13:00.792Z,96366.66
2023-02-14T22:15:27.866Z,96358.31
2023-02-14T22:17:54.422Z,96355.88
2023-02-14T22:20:20.924Z,96348.00
2023-02-14T22:22:47.449Z,96338.31
2023-02-14T22:25:15.571Z,96346.03
2023-02-14T22:27:42.124Z,96347.34
2023-02-14T22:30:08.878Z,96344.75
2023-02-14T22:32:35.458Z,96344.59
2023-02-14T22:35:02.137Z,96344.38
2023-02-14T22:37:28.853Z,96349.31
2023-02-14T22:39:55.340Z,96335.84
2023-02-14T22:42:22.137Z,96338.97
2023-02-14T22:44:48.718Z,96344.41
2023-02-14T22:47:15.491Z,96339.50
2023-02-14T22:49:41.959Z,96340.78
2023-02-14T22:52:08.701Z,96344.50
2023-02-14T22:54:35.194Z,96350.91
2023-02-14T22:57:01.853Z,96345.31
2023-02-14T22:59:28.578Z,96343.53
2023-02-14T23:01:55.149Z,96346.50
2023-02-14T23:04:22.927Z,96352.75
2023-02-14T23:06:51.208Z,96348.63
2023-02-14T23:09:17.916Z,96357.44
2023-02-14T23:11:45.909Z,96353.66
2023-02-14T23:14:17.546Z,96358.91
2023-02-14T23:16:46.966Z,96357.41
2023-02-14T23:19:18.974Z,96355.59
2023-02-14T23:21:45.961Z,96347.72
2023-02-14T23:24:12.648Z,96353.44
2023-02-14T23:26:39.157Z,96352.31
2023-02-14T23:29:10.754Z,96354.06
2023-02-14T23:31:37.520Z,96353.44
2023-02-14T23:34:04.138Z,96342.97
2023-02-14T23:36:31.044Z,96349.22
2023-02-14T23:38:57.531Z,96341.66
2023-02-14T23:41:24.080Z,96342.13
2023-02-14T23:43:50.539Z,96340.00
2023-02-14T23:46:17.341Z,96350.50
2023-02-14T23:48:43.884Z,96340.19
2023-02-14T23:51:10.358Z,96344.91
2023-02-14T23:53:37.063Z,96349.88
2023-02-14T23:56:03.802Z,96343.69
2023-02-14T23:58:30.690Z,96342.72
